Healdville, Vermont
Current Conditions -  °F | °C
As of 8:35 PM on Monday 22 Dec 2014 (Local Time) from KRUT Reporting Station
Overcast Overcast  
Wind Chill: 27°   Ceiling: 4700
Heat Index: 34°   Visibility: 10mi
Dew Point: 30°   Wind: 8mph
Humidity: 87%   Direction: 200°SSW
Pressure: 30.27"   Gusts: NA
Location:  43.437°N, 72.7883°W
Report Text: KRUT 230135Z 20007KT 160V230 10SM SCT026 OVC047 01/M01 A3027 RMK AO1
Loading
Personal Weather Stations






























Interactive Weather Map New forecast layout! Learn more

10-Day Weather Forecast

Advertisements
Track Severe Weather on mobile